Time;durP1;ratioP1;P1;durP2;ratioP2;P2;SDS_P1;SDS_P2;PMS_P1;PMS_P2;Temp;Humidity;BMP_temperature;BMP_pressure;BME280_temperature;BME280_humidity;BME280_pressure;Samples;Min_cycle;Max_cycle;Signal;HPM_P1;HPM_P2
2023/08/28 00:00:33;;;;;;;3.35;0.50;;;12.60;99.90;;;;;;4989323;28;20056;-67
2023/08/28 00:02:59;;;;;;;0.73;0.50;;;12.70;99.90;;;;;;4990148;28;20042;-66
2023/08/28 00:05:25;;;;;;;2.10;0.73;;;12.80;99.90;;;;;;4989534;28;20034;-67
2023/08/28 00:07:50;;;;;;;2.47;0.65;;;12.80;99.90;;;;;;4990163;28;20046;-67
2023/08/28 00:10:16;;;;;;;0.98;0.70;;;12.90;99.90;;;;;;4989555;28;20466;-67
2023/08/28 00:12:43;;;;;;;1.25;0.60;;;13.00;99.90;;;;;;4990108;28;20045;-66
2023/08/28 00:15:09;;;;;;;0.73;0.40;;;13.10;99.90;;;;;;4989715;28;20060;-66
2023/08/28 00:17:36;;;;;;;1.00;0.60;;;13.10;99.90;;;;;;5021997;28;20049;-66
2023/08/28 00:20:03;;;;;;;1.23;0.77;;;13.20;99.90;;;;;;5006417;28;20401;-67
2023/08/28 00:22:29;;;;;;;1.50;0.40;;;13.20;99.90;;;;;;5022851;28;20046;-67
2023/08/28 00:24:55;;;;;;;0.55;0.45;;;13.20;99.90;;;;;;4989218;28;20046;-67
2023/08/28 00:27:20;;;;;;;1.27;0.40;;;13.20;99.90;;;;;;5022445;28;20041;-66
2023/08/28 00:29:46;;;;;;;0.20;0.20;;;13.10;99.90;;;;;;5006411;28;20044;-66
2023/08/28 00:32:12;;;;;;;0.77;0.50;;;13.10;99.90;;;;;;4969711;28;20050;-67
2023/08/28 00:34:38;;;;;;;0.73;0.50;;;13.00;99.90;;;;;;5010732;28;20049;-67
2023/08/28 00:37:04;;;;;;;0.60;0.30;;;13.00;99.90;;;;;;4989439;28;20054;-66
2023/08/28 00:39:30;;;;;;;0.43;0.30;;;13.00;99.90;;;;;;5005301;28;20529;-66
2023/08/28 00:41:56;;;;;;;2.13;0.40;;;13.00;99.90;;;;;;5007131;28;20057;-66
2023/08/28 00:44:22;;;;;;;0.52;0.40;;;13.00;99.90;;;;;;4989992;28;20040;-66
2023/08/28 00:46:47;;;;;;;0.52;0.40;;;12.90;99.90;;;;;;5022122;28;20042;-67
2023/08/28 00:49:13;;;;;;;0.50;0.30;;;12.90;99.90;;;;;;5007063;28;20546;-67
2023/08/28 00:51:40;;;;;;;0.68;0.47;;;12.90;99.90;;;;;;5005871;28;20163;-67
2023/08/28 00:54:07;;;;;;;0.47;0.30;;;12.90;99.90;;;;;;5021680;28;20129;-68
2023/08/28 00:56:34;;;;;;;0.52;0.50;;;12.90;99.90;;;;;;5007164;28;20115;-67
2023/08/28 00:59:00;;;;;;;1.73;0.40;;;12.80;99.90;;;;;;4992081;28;20381;-67
2023/08/28 01:01:26;;;;;;;0.35;0.25;;;12.70;99.90;;;;;;5006268;28;20026;-67
2023/08/28 01:03:52;;;;;;;0.43;0.40;;;12.70;99.90;;;;;;5006843;28;20200;-66
2023/08/28 01:06:29;;;;;;;0.55;0.50;;;12.60;99.90;;;;;;4972664;28;20042;-67
2023/08/28 01:09:15;;;;;;;1.23;0.47;;;12.60;99.90;;;;;;4989296;28;20041;-67
2023/08/28 01:11:51;;;;;;;0.28;0.28;;;12.50;99.90;;;;;;5004745;28;20082;-67
2023/08/28 01:14:26;;;;;;;0.75;0.45;;;12.50;99.90;;;;;;5004912;28;20121;-67
2023/08/28 01:17:00;;;;;;;1.58;0.40;;;12.40;99.90;;;;;;5005434;28;20128;-67
2023/08/28 01:19:36;;;;;;;0.88;0.60;;;12.40;99.90;;;;;;5006870;28;20351;-67
2023/08/28 01:22:32;;;;;;;0.70;0.40;;;12.30;99.90;;;;;;5006290;28;20044;-67
2023/08/28 01:25:10;;;;;;;0.40;0.30;;;12.30;99.90;;;;;;4985814;28;20038;-67
2023/08/28 01:27:41;;;;;;;0.40;0.28;;;12.20;99.90;;;;;;4995514;28;20148;-66
2023/08/28 01:30:12;;;;;;;0.20;0.20;;;12.10;99.90;;;;;;5034623;28;20172;-66
2023/08/28 01:32:40;;;;;;;0.30;0.30;;;12.10;99.90;;;;;;4986392;28;20443;-66
2023/08/28 01:35:31;;;;;;;0.60;0.30;;;12.00;99.90;;;;;;4996823;28;20049;-66
2023/08/28 01:38:02;;;;;;;0.63;0.43;;;11.90;99.90;;;;;;5010603;28;20057;-66
2023/08/28 01:40:49;;;;;;;0.38;0.30;;;12.00;99.90;;;;;;5006458;28;20128;-66
2023/08/28 01:43:20;;;;;;;2.05;0.55;;;11.90;99.90;;;;;;5004523;28;20139;-66
2023/08/28 01:45:47;;;;;;;0.85;0.50;;;11.90;99.90;;;;;;5008142;28;20038;-67
2023/08/28 01:48:13;;;;;;;0.75;0.50;;;11.80;99.90;;;;;;5009250;28;20042;-67
2023/08/28 01:50:38;;;;;;;0.22;0.20;;;11.80;99.90;;;;;;5008305;28;20038;-67
2023/08/28 01:53:04;;;;;;;0.88;0.68;;;11.80;99.90;;;;;;5008336;28;20098;-66
2023/08/28 01:56:14;;;;;;;0.60;0.50;;;11.80;99.90;;;;;;5008092;28;20057;-66
2023/08/28 01:58:43;;;;;;;;;;;11.70;99.90;;;;;;5033686;28;20507;-66
2023/08/28 02:01:09;;;;;;;0.30;0.22;;;11.60;99.90;;;;;;5033010;28;19917;-66
2023/08/28 02:03:40;;;;;;;0.32;0.20;;;11.50;99.90;;;;;;5049229;28;20529;-67
2023/08/28 02:06:07;;;;;;;1.50;0.60;;;11.40;99.90;;;;;;5033543;28;20496;-67
2023/08/28 02:08:33;;;;;;;2.45;0.93;;;11.50;99.90;;;;;;5033277;28;20162;-67
2023/08/28 02:10:59;;;;;;;1.80;0.85;;;11.50;99.90;;;;;;5032416;28;20210;-67
2023/08/28 02:13:25;;;;;;;3.40;0.60;;;11.60;99.90;;;;;;5032967;28;20179;-67
2023/08/28 02:15:51;;;;;;;0.88;0.60;;;11.70;99.90;;;;;;5032950;28;20057;-67
2023/08/28 02:18:17;;;;;;;1.58;0.80;;;11.80;99.90;;;;;;5048870;28;20697;-67
2023/08/28 02:20:44;;;;;;;1.35;0.98;;;11.90;99.90;;;;;;5049490;28;20044;-67
2023/08/28 02:23:10;;;;;;;1.13;0.70;;;11.90;99.90;;;;;;5032692;28;20611;-68
2023/08/28 02:25:43;;;;;;;0.82;0.60;;;12.00;99.90;;;;;;5031877;28;20123;-68
2023/08/28 02:28:09;;;;;;;1.25;0.52;;;12.00;99.90;;;;;;5049468;28;20055;-68
2023/08/28 02:30:34;;;;;;;7.30;0.80;;;12.00;99.90;;;;;;5049082;28;20045;-67
2023/08/28 02:33:00;;;;;;;1.10;0.52;;;12.00;99.90;;;;;;5049505;28;20883;-67
2023/08/28 02:35:26;;;;;;;1.15;0.50;;;12.00;99.90;;;;;;5017439;28;20057;-67
2023/08/28 02:37:52;;;;;;;1.20;0.60;;;12.00;99.90;;;;;;5006723;28;20110;-67
2023/08/28 02:40:18;;;;;;;1.02;0.55;;;12.00;99.90;;;;;;5008932;28;20046;-67
2023/08/28 02:42:43;;;;;;;1.05;0.60;;;12.00;99.90;;;;;;5007760;28;20092;-67
2023/08/28 02:45:09;;;;;;;0.80;0.50;;;11.90;99.90;;;;;;5007465;28;20042;-67
2023/08/28 02:47:35;;;;;;;1.33;0.80;;;11.90;99.90;;;;;;5007733;28;20053;-67
2023/08/28 02:50:01;;;;;;;1.17;0.68;;;11.90;99.90;;;;;;5007640;28;20057;-67
2023/08/28 02:52:27;;;;;;;2.58;0.77;;;11.90;99.90;;;;;;5008119;28;20042;-67
2023/08/28 02:54:52;;;;;;;1.02;0.60;;;11.90;99.90;;;;;;4991253;28;20121;-68
2023/08/28 02:57:18;;;;;;;1.05;0.50;;;11.90;99.90;;;;;;5007330;28;20103;-68
2023/08/28 02:59:44;;;;;;;1.45;0.50;;;11.90;99.90;;;;;;5009635;28;20030;-68
2023/08/28 03:02:10;;;;;;;1.02;0.40;;;11.90;99.90;;;;;;5007458;28;20042;-67
2023/08/28 03:04:36;;;;;;;0.77;0.40;;;11.80;99.90;;;;;;5022437;28;20040;-67
2023/08/28 03:07:01;;;;;;;1.45;0.68;;;11.80;99.90;;;;;;5026762;28;20072;-67
2023/08/28 03:09:29;;;;;;;1.58;0.68;;;11.80;99.90;;;;;;5026999;28;20497;-67
2023/08/28 03:11:55;;;;;;;1.38;0.68;;;11.80;99.90;;;;;;5027129;28;20132;-67
2023/08/28 03:14:21;;;;;;;13.00;0.70;;;11.70;99.90;;;;;;5026595;28;20049;-68
2023/08/28 03:16:47;;;;;;;1.45;0.38;;;11.70;99.90;;;;;;5027208;28;20500;-67
2023/08/28 03:19:13;;;;;;;4.32;0.60;;;11.70;99.90;;;;;;5020334;28;20355;-67
2023/08/28 03:21:40;;;;;;;1.02;0.63;;;11.60;99.90;;;;;;4988439;28;20049;-67
2023/08/28 03:24:06;;;;;;;1.42;0.50;;;11.50;99.90;;;;;;5000057;28;20052;-68
2023/08/28 03:26:32;;;;;;;0.98;0.60;;;11.50;99.90;;;;;;4990429;28;20056;-68
2023/08/28 03:28:58;;;;;;;1.30;0.60;;;11.30;99.90;;;;;;5008297;28;20533;-67
2023/08/28 03:31:25;;;;;;;2.50;0.80;;;11.20;99.90;;;;;;5006974;28;20042;-67
2023/08/28 03:33:51;;;;;;;2.00;0.60;;;11.20;99.90;;;;;;5006144;28;20486;-68
2023/08/28 03:36:17;;;;;;;4.25;0.80;;;11.20;99.90;;;;;;5006947;28;20042;-68
2023/08/28 03:38:42;;;;;;;1.50;0.68;;;11.20;99.90;;;;;;5006803;28;20122;-68
2023/08/28 03:41:09;;;;;;;0.65;0.63;;;11.30;99.90;;;;;;5006417;28;20034;-67
2023/08/28 03:43:35;;;;;;;2.47;0.82;;;11.30;99.90;;;;;;5006717;28;20050;-67
2023/08/28 03:46:01;;;;;;;4.55;0.70;;;11.30;99.90;;;;;;5008002;28;20107;-68
2023/08/28 03:48:26;;;;;;;1.23;0.52;;;11.30;99.90;;;;;;5005986;28;20050;-67
2023/08/28 03:50:52;;;;;;;0.95;0.60;;;11.30;99.90;;;;;;4990619;28;20095;-67
2023/08/28 03:53:18;;;;;;;0.70;0.50;;;11.20;99.90;;;;;;5006975;28;20052;-68
2023/08/28 03:55:44;;;;;;;0.90;0.47;;;11.20;99.90;;;;;;5006701;28;20045;-68
2023/08/28 03:58:10;;;;;;;0.55;0.30;;;11.10;99.90;;;;;;5007619;28;20074;-68
2023/08/28 04:00:53;;;;;;;1.25;0.60;;;11.10;99.90;;;;;;5021776;28;20052;-67
2023/08/28 04:03:20;;;;;;;1.65;0.60;;;11.10;99.90;;;;;;5026608;28;20045;-67
2023/08/28 04:05:47;;;;;;;0.63;0.32;;;11.10;99.90;;;;;;5026147;28;20516;-67
2023/08/28 04:08:13;;;;;;;1.45;0.70;;;11.10;99.90;;;;;;5014524;28;20045;-67
2023/08/28 04:10:38;;;;;;;1.88;0.52;;;11.10;99.90;;;;;;5007415;28;20045;-67
2023/08/28 04:13:04;;;;;;;1.02;0.50;;;11.10;99.90;;;;;;5007579;28;20218;-67
2023/08/28 04:15:31;;;;;;;0.60;0.30;;;11.10;99.90;;;;;;4998783;28;20046;-67
2023/08/28 04:17:59;;;;;;;1.15;0.43;;;11.10;99.90;;;;;;4991101;28;20050;-67
2023/08/28 04:20:25;;;;;;;0.22;0.20;;;11.10;99.90;;;;;;5006334;28;20041;-67
2023/08/28 04:22:51;;;;;;;0.35;0.20;;;11.00;99.90;;;;;;5006984;28;20418;-68
2023/08/28 04:25:17;;;;;;;0.20;0.20;;;11.00;99.90;;;;;;5006216;28;20492;-67
2023/08/28 04:27:42;;;;;;;0.43;0.30;;;10.90;99.90;;;;;;5006422;28;20088;-67
2023/08/28 04:30:09;;;;;;;0.50;0.40;;;10.80;99.90;;;;;;5006771;28;20038;-67
2023/08/28 04:32:35;;;;;;;4.97;0.52;;;10.60;99.90;;;;;;5006132;28;20069;-67
2023/08/28 04:35:02;;;;;;;4.28;0.40;;;10.40;99.90;;;;;;5005925;28;20159;-68
2023/08/28 04:37:28;;;;;;;0.65;0.40;;;10.40;99.90;;;;;;5005026;28;20058;-67
2023/08/28 04:39:54;;;;;;;0.30;0.30;;;10.30;99.90;;;;;;5006144;28;20049;-68
2023/08/28 04:42:20;;;;;;;0.60;0.40;;;10.30;99.90;;;;;;4989555;28;20049;-68
2023/08/28 04:44:46;;;;;;;0.52;0.40;;;10.30;99.90;;;;;;4989297;28;20604;-68
2023/08/28 04:47:13;;;;;;;1.13;0.63;;;10.30;99.90;;;;;;4989585;28;20056;-67
2023/08/28 04:49:39;;;;;;;9.25;0.98;;;10.30;99.90;;;;;;5007197;28;20046;-67
2023/08/28 04:52:05;;;;;;;0.50;0.40;;;10.30;99.90;;;;;;5005121;28;20052;-67
2023/08/28 04:54:32;;;;;;;0.80;0.43;;;10.40;99.90;;;;;;5007063;28;20087;-68
2023/08/28 04:56:58;;;;;;;0.65;0.43;;;10.40;99.90;;;;;;5020327;28;20561;-68
2023/08/28 04:59:24;;;;;;;0.95;0.52;;;10.40;99.90;;;;;;5024553;28;20037;-68
2023/08/28 05:01:50;;;;;;;1.58;0.82;;;10.50;99.90;;;;;;5025496;28;20102;-67
2023/08/28 05:04:16;;;;;;;0.80;0.40;;;10.60;99.90;;;;;;5024833;28;20037;-68
2023/08/28 05:06:41;;;;;;;1.20;0.80;;;10.60;99.90;;;;;;5025344;28;20049;-67
2023/08/28 05:09:07;;;;;;;0.70;0.60;;;10.80;99.90;;;;;;5008832;28;20485;-68
2023/08/28 05:11:33;;;;;;;1.85;0.77;;;10.90;99.90;;;;;;5019262;28;20128;-67
2023/08/28 05:13:59;;;;;;;1.83;0.90;;;11.00;99.90;;;;;;5005807;28;20137;-67
2023/08/28 05:16:25;;;;;;;0.93;0.60;;;11.10;99.90;;;;;;5005779;28;20034;-67
2023/08/28 05:18:50;;;;;;;1.42;0.77;;;11.20;99.90;;;;;;5007142;28;20469;-67
2023/08/28 05:21:16;;;;;;;1.52;1.00;;;11.40;99.90;;;;;;5010224;28;20451;-67
2023/08/28 05:23:42;;;;;;;1.27;0.70;;;11.40;99.90;;;;;;5008992;28;20397;-68
2023/08/28 05:26:08;;;;;;;4.00;1.02;;;11.50;99.90;;;;;;5008411;28;20056;-68
2023/08/28 05:28:37;;;;;;;1.50;0.93;;;11.60;99.90;;;;;;5008999;28;20489;-67
2023/08/28 05:31:03;;;;;;;1.10;0.65;;;11.70;99.90;;;;;;4992848;28;20122;-68
2023/08/28 05:33:30;;;;;;;1.52;0.40;;;11.90;99.90;;;;;;5008320;28;20125;-68
2023/08/28 05:35:56;;;;;;;0.80;0.40;;;12.00;99.90;;;;;;5020458;28;20057;-68
2023/08/28 05:38:22;;;;;;;1.52;0.80;;;12.00;99.90;;;;;;5008257;28;20062;-68
2023/08/28 05:40:48;;;;;;;1.33;0.77;;;12.10;99.90;;;;;;5007814;28;20042;-68
2023/08/28 05:43:14;;;;;;;2.40;0.90;;;12.20;99.90;;;;;;5008523;28;20030;-68
2023/08/28 05:45:39;;;;;;;2.10;1.05;;;12.30;99.90;;;;;;5009989;28;20066;-68
2023/08/28 05:48:06;;;;;;;0.80;0.47;;;12.50;99.90;;;;;;4991607;28;20048;-67
2023/08/28 05:50:31;;;;;;;1.35;0.70;;;12.50;99.90;;;;;;5008725;28;20106;-68
2023/08/28 05:52:57;;;;;;;1.15;0.65;;;12.60;99.90;;;;;;4992109;28;20565;-68
2023/08/28 05:55:23;;;;;;;1.80;0.80;;;12.70;99.90;;;;;;5007710;28;20133;-67
2023/08/28 05:57:49;;;;;;;1.50;0.90;;;12.70;99.90;;;;;;5009362;28;20080;-67
2023/08/28 06:00:15;;;;;;;1.17;0.52;;;12.80;99.90;;;;;;5011996;28;20045;-68
2023/08/28 06:02:41;;;;;;;3.17;0.65;;;12.90;99.90;;;;;;5008136;28;20130;-68
2023/08/28 06:05:08;;;;;;;1.88;0.95;;;13.00;99.90;;;;;;5009687;28;20045;-67
2023/08/28 06:07:34;;;;;;;2.35;0.95;;;13.10;99.90;;;;;;5007733;28;20076;-68
2023/08/28 06:10:00;;;;;;;2.47;0.73;;;13.20;99.90;;;;;;5009258;28;20057;-68
2023/08/28 06:12:26;;;;;;;1.25;0.65;;;13.40;99.90;;;;;;5008147;28;20050;-67
2023/08/28 06:14:52;;;;;;;1.88;1.05;;;13.50;99.90;;;;;;5007563;28;20125;-68
2023/08/28 06:17:17;;;;;;;1.58;0.80;;;13.70;99.90;;;;;;5007811;28;20489;-68
2023/08/28 06:19:43;;;;;;;2.47;1.23;;;13.80;99.90;;;;;;5007706;28;20482;-68
2023/08/28 06:22:09;;;;;;;2.15;1.10;;;14.00;99.90;;;;;;5007218;28;20053;-68
2023/08/28 06:24:35;;;;;;;4.70;1.42;;;14.40;99.90;;;;;;5007912;28;20038;-69
2023/08/28 06:27:01;;;;;;;3.08;1.70;;;14.80;99.90;;;;;;5007799;28;20088;-69
2023/08/28 06:29:26;;;;;;;2.75;1.55;;;15.20;99.90;;;;;;5007143;28;20037;-69
2023/08/28 06:31:52;;;;;;;2.42;1.33;;;15.50;99.90;;;;;;5024775;28;20052;-69
2023/08/28 06:34:18;;;;;;;1.80;1.20;;;15.90;99.90;;;;;;5027586;28;20144;-69
2023/08/28 06:36:45;;;;;;;1.45;0.90;;;16.20;99.90;;;;;;5027989;28;20046;-69
2023/08/28 06:39:12;;;;;;;1.00;0.73;;;16.40;99.90;;;;;;5028398;28;20165;-69
2023/08/28 06:41:38;;;;;;;1.50;0.80;;;16.70;99.90;;;;;;5028202;28;20116;-70
2023/08/28 06:44:07;;;;;;;1.13;0.68;;;17.00;99.90;;;;;;5027914;28;20033;-70
2023/08/28 06:46:33;;;;;;;2.13;0.73;;;17.20;99.90;;;;;;5027095;28;20033;-70
2023/08/28 06:48:59;;;;;;;1.08;0.63;;;17.50;99.90;;;;;;5014788;28;20049;-70
2023/08/28 06:51:24;;;;;;;1.85;0.80;;;17.80;99.90;;;;;;5006813;28;20042;-70
2023/08/28 06:53:51;;;;;;;1.60;0.70;;;18.10;99.90;;;;;;4990962;28;20065;-71
2023/08/28 06:56:19;;;;;;;1.45;0.80;;;18.20;99.90;;;;;;5006453;28;20443;-70
2023/08/28 06:58:45;;;;;;;1.33;0.50;;;18.40;99.90;;;;;;5007315;28;20078;-70
2023/08/28 07:01:11;;;;;;;0.77;0.35;;;18.40;99.90;;;;;;5027231;28;20080;-70
2023/08/28 07:03:37;;;;;;;0.82;0.50;;;18.30;99.90;;;;;;5020412;28;20038;-68
2023/08/28 07:06:03;;;;;;;0.63;0.40;;;18.10;99.90;;;;;;5007370;28;20038;-70
2023/08/28 07:08:28;;;;;;;0.80;0.40;;;17.90;99.90;;;;;;5007592;28;20068;-71
2023/08/28 07:10:54;;;;;;;2.08;0.55;;;17.80;99.90;;;;;;5006822;28;20128;-71
2023/08/28 07:13:20;;;;;;;0.57;0.30;;;17.70;99.90;;;;;;5007483;28;20041;-70
2023/08/28 07:15:46;;;;;;;1.73;0.60;;;17.60;99.90;;;;;;5008229;28;20485;-71
2023/08/28 07:18:11;;;;;;;0.40;0.25;;;17.50;99.90;;;;;;5006315;28;20038;-70
2023/08/28 07:20:37;;;;;;;0.47;0.32;;;17.40;99.90;;;;;;5007230;28;20695;-69
2023/08/28 07:23:03;;;;;;;1.23;0.60;;;17.40;99.90;;;;;;5007085;28;20487;-69
2023/08/28 07:25:31;;;;;;;0.43;0.40;;;17.40;99.90;;;;;;5007646;28;20038;-69
2023/08/28 07:27:57;;;;;;;1.40;0.50;;;17.40;99.90;;;;;;5021275;28;20089;-69
2023/08/28 07:30:23;;;;;;;2.53;0.50;;;17.40;99.90;;;;;;5026674;28;20392;-68
2023/08/28 07:32:48;;;;;;;1.08;0.60;;;17.40;99.90;;;;;;5026420;28;20137;-68
2023/08/28 07:35:14;;;;;;;2.05;0.32;;;17.40;99.90;;;;;;5010111;28;20073;-68
2023/08/28 07:37:40;;;;;;;1.05;0.40;;;17.50;99.90;;;;;;5026154;28;20086;-68
2023/08/28 07:40:07;;;;;;;0.38;0.32;;;17.50;99.90;;;;;;5025873;28;20107;-68
2023/08/28 07:42:33;;;;;;;0.40;0.25;;;17.50;99.90;;;;;;5025651;28;20481;-68
2023/08/28 07:44:59;;;;;;;1.10;0.30;;;17.50;99.90;;;;;;4998443;28;20079;-68
2023/08/28 07:47:26;;;;;;;0.82;0.40;;;17.50;99.90;;;;;;5007253;28;20054;-68
2023/08/28 07:49:52;;;;;;;0.98;0.30;;;17.70;99.90;;;;;;5015725;28;20067;-67
2023/08/28 07:52:18;;;;;;;1.25;0.68;;;17.70;99.90;;;;;;5006745;28;20455;-66
2023/08/28 07:54:43;;;;;;;0.20;0.20;;;17.80;99.90;;;;;;5045988;28;20040;-66
2023/08/28 07:57:09;;;;;;;0.13;0.13;;;17.90;99.90;;;;;;5110317;28;20036;-66
2023/08/28 07:59:35;;;;;;;0.50;0.40;;;18.00;99.90;;;;;;5072789;28;20041;-67
2023/08/28 08:02:01;;;;;;;0.38;0.30;;;18.20;99.90;;;;;;5007798;28;20049;-67
2023/08/28 08:04:27;;;;;;;1.10;0.30;;;18.50;99.90;;;;;;5006300;28;20042;-69
2023/08/28 08:06:52;;;;;;;0.52;0.40;;;19.00;99.90;;;;;;5005269;28;20046;-70
2023/08/28 08:09:18;;;;;;;0.55;0.30;;;19.50;99.90;;;;;;5006297;28;20046;-68
2023/08/28 08:11:44;;;;;;;0.73;0.10;;;20.00;99.90;;;;;;5006208;28;20528;-68
2023/08/28 08:14:10;;;;;;;0.45;0.20;;;20.30;99.90;;;;;;5006683;28;20046;-68
2023/08/28 08:16:36;;;;;;;1.52;0.22;;;20.50;99.90;;;;;;5006690;28;20049;-68
2023/08/28 08:19:02;;;;;;;0.85;0.38;;;20.70;99.90;;;;;;5006088;28;20049;-67
2023/08/28 08:21:28;;;;;;;1.02;0.25;;;20.60;99.90;;;;;;5005572;28;20038;-67
2023/08/28 08:23:55;;;;;;;1.10;0.28;;;20.40;99.90;;;;;;5018243;28;20042;-67
2023/08/28 08:26:21;;;;;;;1.48;0.20;;;20.60;99.90;;;;;;5025896;28;20041;-67
2023/08/28 08:28:48;;;;;;;0.85;0.28;;;21.00;99.90;;;;;;5025059;28;20052;-67
2023/08/28 08:31:13;;;;;;;1.98;0.65;;;21.70;99.90;;;;;;5014211;28;20499;-68
2023/08/28 08:33:39;;;;;;;0.43;0.20;;;22.20;99.90;;;;;;5007030;28;20116;-68
2023/08/28 08:36:05;;;;;;;1.67;0.28;;;22.70;99.90;;;;;;5005333;28;20489;-68
2023/08/28 08:38:31;;;;;;;0.68;0.30;;;22.90;99.90;;;;;;5004719;28;20054;-68
2023/08/28 08:41:01;;;;;;;0.35;0.20;;;22.90;99.90;;;;;;5003852;28;20042;-67
2023/08/28 08:43:28;;;;;;;0.30;0.10;;;22.40;99.90;;;;;;5005240;28;20454;-67
2023/08/28 08:46:01;;;;;;;0.70;0.20;;;21.80;99.90;;;;;;5006148;28;20045;-67
2023/08/28 08:48:29;;;;;;;0.40;0.30;;;21.90;99.90;;;;;;5005349;28;20046;-68
2023/08/28 08:51:05;;;;;;;0.50;0.25;;;22.30;99.90;;;;;;5005676;28;20042;-68
2023/08/28 08:53:48;;;;;;;0.95;0.20;;;22.40;99.90;;;;;;5006996;28;20148;-67
2023/08/28 08:56:18;;;;;;;1.02;0.30;;;21.90;99.90;;;;;;5009794;28;20393;-68
2023/08/28 08:58:46;;;;;;;0.17;0.17;;;21.90;99.90;;;;;;5011667;28;20462;-67
2023/08/28 09:01:12;;;;;;;0.52;0.20;;;22.20;99.90;;;;;;5028619;28;20137;-68
2023/08/28 09:03:38;;;;;;;0.47;0.10;;;22.60;99.90;;;;;;5029456;28;20128;-68
2023/08/28 09:06:07;;;;;;;1.23;0.10;;;23.10;99.90;;;;;;5028899;28;20049;-68
2023/08/28 09:08:38;;;;;;;0.45;0.25;;;23.50;99.90;;;;;;5028933;28;20049;-67
2023/08/28 09:11:06;;;;;;;0.43;0.13;;;23.50;99.90;;;;;;5029353;28;20613;-68
2023/08/28 09:13:33;;;;;;;0.65;0.20;;;23.40;99.90;;;;;;5028545;28;20038;-68
2023/08/28 09:15:58;;;;;;;1.10;0.10;;;23.30;99.90;;;;;;5021325;28;20125;-68
2023/08/28 09:18:25;;;;;;;0.90;0.20;;;22.80;99.90;;;;;;5008380;28;20564;-67
2023/08/28 09:21:10;;;;;;;0.52;0.15;;;22.30;99.90;;;;;;5010218;28;20053;-68
2023/08/28 09:23:44;;;;;;;2.83;0.25;;;22.30;99.90;;;;;;5008357;28;20121;-68
2023/08/28 09:26:20;;;;;;;0.20;0.13;;;22.30;99.90;;;;;;5010053;28;20034;-68
2023/08/28 09:29:00;;;;;;;0.68;0.20;;;22.10;99.90;;;;;;5008807;28;20081;-69
2023/08/28 09:31:34;;;;;;;0.88;0.30;;;22.50;99.90;;;;;;4991895;28;20158;-70
2023/08/28 09:34:02;;;;;;;0.40;0.30;;;23.20;99.90;;;;;;5008783;28;20050;-70
2023/08/28 09:36:28;;;;;;;0.35;0.20;;;23.80;99.90;;;;;;5008617;28;20082;-70
2023/08/28 09:39:05;;;;;;;2.97;0.30;;;24.50;99.90;;;;;;5007039;28;20050;-69
2023/08/28 09:41:49;;;;;;;0.88;0.10;;;24.60;99.90;;;;;;5008677;28;20046;-70
2023/08/28 09:44:17;;;;;;;0.73;0.20;;;24.00;99.90;;;;;;5008076;28;20113;-71
2023/08/28 09:46:44;;;;;;;0.08;0.08;;;22.90;99.90;;;;;;5004556;28;20042;-69
2023/08/28 09:49:13;;;;;;;1.35;0.20;;;21.80;99.90;;;;;;5001321;28;20133;-69
2023/08/28 09:51:44;;;;;;;0.52;0.10;;;21.10;99.90;;;;;;4997264;28;20038;-69
2023/08/28 09:54:12;;;;;;;1.90;0.10;;;20.30;99.90;;;;;;5008516;28;20157;-69
2023/08/28 09:56:38;;;;;;;0.00;0.00;;;19.70;99.90;;;;;;5039115;28;20032;-69
2023/08/28 09:59:06;;;;;;;0.10;0.10;;;19.30;99.90;;;;;;5092834;28;20048;-68
2023/08/28 10:01:34;;;;;;;0.10;0.10;;;19.10;99.90;;;;;;5009231;28;20154;-68
2023/08/28 10:04:03;;;;;;;0.00;0.00;;;18.90;99.90;;;;;;5008427;28;20030;-68
2023/08/28 10:06:33;;;;;;;0.50;0.20;;;18.70;99.90;;;;;;5007206;28;20042;-69
2023/08/28 10:09:05;;;;;;;0.22;0.10;;;18.60;99.90;;;;;;5008344;28;20046;-69
2023/08/28 10:11:36;;;;;;;0.10;0.10;;;18.60;99.90;;;;;;5009336;28;20159;-70
2023/08/28 10:14:04;;;;;;;0.75;0.20;;;18.50;99.90;;;;;;5007925;28;20037;-70
2023/08/28 10:16:34;;;;;;;1.63;0.30;;;18.50;99.90;;;;;;5007813;28;20061;-70
2023/08/28 10:19:23;;;;;;;3.30;0.20;;;18.40;99.90;;;;;;4980694;28;20038;-70
2023/08/28 10:21:51;;;;;;;0.57;0.20;;;18.30;99.90;;;;;;4989815;28;20049;-70
2023/08/28 10:24:17;;;;;;;1.00;0.43;;;18.20;99.90;;;;;;4988693;28;20045;-70
2023/08/28 10:26:44;;;;;;;0.98;0.40;;;18.20;99.90;;;;;;4987817;28;20096;-70
2023/08/28 10:29:11;;;;;;;0.20;0.10;;;18.20;99.90;;;;;;4988565;28;20436;-70
2023/08/28 10:31:38;;;;;;;1.65;0.20;;;18.20;99.90;;;;;;4989679;28;20061;-70
2023/08/28 10:34:06;;;;;;;0.25;0.20;;;18.30;99.90;;;;;;4999703;28;20038;-70
2023/08/28 10:36:32;;;;;;;0.85;0.43;;;18.40;99.90;;;;;;5007754;28;20422;-70
2023/08/28 10:39:01;;;;;;;0.82;0.40;;;18.40;99.90;;;;;;5008965;28;20070;-69
2023/08/28 10:41:28;;;;;;;0.10;0.10;;;18.40;99.90;;;;;;4990990;28;20042;-69
2023/08/28 10:43:56;;;;;;;0.38;0.20;;;18.60;99.90;;;;;;5007878;28;20046;-69
2023/08/28 10:46:22;;;;;;;0.20;0.20;;;18.60;99.90;;;;;;5009120;28;20049;-69
2023/08/28 10:48:55;;;;;;;0.68;0.17;;;18.60;99.90;;;;;;5008179;28;20034;-69
2023/08/28 10:51:23;;;;;;;0.68;0.20;;;18.60;99.90;;;;;;5008776;28;20087;-69
2023/08/28 10:53:51;;;;;;;0.20;0.20;;;18.70;99.90;;;;;;5008840;28;20569;-68
2023/08/28 10:56:17;;;;;;;0.40;0.17;;;18.70;99.90;;;;;;5007312;28;20397;-68
2023/08/28 10:58:43;;;;;;;1.23;0.32;;;18.70;99.90;;;;;;4992250;28;20034;-68
2023/08/28 11:01:13;;;;;;;1.90;0.20;;;18.80;99.90;;;;;;5026905;28;20125;-68
2023/08/28 11:03:59;;;;;;;0.73;0.43;;;18.90;99.90;;;;;;5028247;28;20052;-68
2023/08/28 11:06:41;;;;;;;0.43;0.17;;;18.90;99.90;;;;;;5027121;28;20362;-68
2023/08/28 11:09:26;;;;;;;0.80;0.20;;;19.00;99.90;;;;;;5027811;28;20038;-67
2023/08/28 11:12:12;;;;;;;1.70;0.38;;;19.10;99.90;;;;;;5021036;28;20038;-67
2023/08/28 11:14:39;;;;;;;0.95;0.30;;;19.20;99.90;;;;;;5001045;28;20106;-67
2023/08/28 11:17:09;;;;;;;0.40;0.20;;;19.30;99.90;;;;;;4987294;28;20034;-67
2023/08/28 11:19:53;;;;;;;3.13;0.40;;;19.50;99.90;;;;;;4987687;28;20069;-67
2023/08/28 11:22:36;;;;;;;0.30;0.15;;;19.50;99.90;;;;;;4987415;28;20053;-67
2023/08/28 11:25:07;;;;;;;1.08;0.40;;;19.50;99.90;;;;;;4987583;28;20065;-67
2023/08/28 11:27:45;;;;;;;0.15;0.10;;;19.80;99.90;;;;;;4987790;28;20042;-67
2023/08/28 11:30:12;;;;;;;0.52;0.30;;;20.30;99.90;;;;;;4993559;28;20053;-67
2023/08/28 11:32:44;;;;;;;1.38;0.38;;;20.60;99.90;;;;;;5005414;28;20448;-67
2023/08/28 11:35:16;;;;;;;2.35;0.30;;;20.60;99.90;;;;;;4995696;28;20038;-67
2023/08/28 11:37:47;;;;;;;0.47;0.35;;;20.50;99.90;;;;;;5006198;28;20081;-66
2023/08/28 11:40:21;;;;;;;0.38;0.20;;;20.40;99.90;;;;;;5006903;28;20030;-66
2023/08/28 11:42:48;;;;;;;0.57;0.45;;;20.30;99.90;;;;;;5007801;28;20045;-66
2023/08/28 11:45:22;;;;;;;0.30;0.20;;;20.20;99.90;;;;;;5052169;28;20085;-65
2023/08/28 11:47:48;;;;;;;0.10;0.10;;;20.40;99.90;;;;;;5090509;28;20052;-65
2023/08/28 11:50:13;;;;;;;1.38;0.45;;;20.60;99.90;;;;;;5090456;28;20031;-66
2023/08/28 11:52:39;;;;;;;0.13;0.13;;;21.00;99.90;;;;;;5019489;28;20038;-66
2023/08/28 11:55:06;;;;;;;0.68;0.30;;;21.30;99.90;;;;;;5026124;28;20049;-65
2023/08/28 11:57:33;;;;;;;1.00;0.52;;;21.40;99.90;;;;;;5025590;28;20102;-65
2023/08/28 12:00:04;;;;;;;0.40;0.20;;;21.20;99.90;;;;;;5027287;28;20477;-65
2023/08/28 12:02:30;;;;;;;3.80;0.30;;;20.80;99.90;;;;;;5027328;28;20044;-66
2023/08/28 12:04:56;;;;;;;0.35;0.20;;;20.60;99.90;;;;;;5025647;28;20041;-66
2023/08/28 12:07:24;;;;;;;1.45;0.30;;;20.20;99.90;;;;;;5025939;28;20106;-66
2023/08/28 12:09:52;;;;;;;0.93;0.40;;;19.90;99.90;;;;;;4970928;28;20095;-66
2023/08/28 12:12:19;;;;;;;2.03;0.38;;;19.70;99.90;;;;;;4994542;28;20038;-66
2023/08/28 12:14:47;;;;;;;0.63;0.38;;;19.40;99.90;;;;;;5007567;28;20049;-66
2023/08/28 12:17:17;;;;;;;1.27;0.25;;;19.20;99.90;;;;;;5007345;28;20172;-66
2023/08/28 12:19:44;;;;;;;0.63;0.40;;;19.00;99.90;;;;;;5005808;28;20041;-66
2023/08/28 12:22:11;;;;;;;0.22;0.20;;;18.90;99.90;;;;;;5006690;28;20435;-65
2023/08/28 12:24:42;;;;;;;2.20;0.30;;;18.80;99.90;;;;;;5007386;28;20057;-66
2023/08/28 12:27:13;;;;;;;0.55;0.22;;;18.70;99.90;;;;;;4976978;28;20050;-66
2023/08/28 12:29:41;;;;;;;0.38;0.17;;;18.70;99.90;;;;;;4987470;28;20087;-66
2023/08/28 12:32:09;;;;;;;0.68;0.40;;;18.80;99.90;;;;;;4988067;28;20046;-66
2023/08/28 12:34:37;;;;;;;1.85;0.20;;;18.80;99.90;;;;;;5000854;28;20049;-66
2023/08/28 12:37:07;;;;;;;0.15;0.10;;;18.90;99.90;;;;;;5005646;28;20058;-65
2023/08/28 12:39:35;;;;;;;0.30;0.20;;;18.90;99.90;;;;;;5006700;28;20186;-65
2023/08/28 12:42:02;;;;;;;0.65;0.20;;;19.10;99.90;;;;;;5006125;28;20045;-66
2023/08/28 12:44:29;;;;;;;1.05;0.50;;;19.30;99.90;;;;;;5006988;28;20482;-67
2023/08/28 12:46:58;;;;;;;0.10;0.10;;;19.70;99.90;;;;;;5006498;28;20631;-66
2023/08/28 12:49:24;;;;;;;2.00;0.22;;;20.30;99.90;;;;;;5020517;28;20362;-66
2023/08/28 12:51:50;;;;;;;0.10;0.10;;;20.80;99.90;;;;;;5026863;28;20481;-66